sensor_id;sensor_type;location;lat;lon;timestamp;temperature;humidity
17284;DHT22;8760;52.248;20.952;2023-10-19T00:00:52;3.50;1.00
17284;DHT22;8760;52.248;20.952;2023-10-19T00:03:22;3.50;1.00
17284;DHT22;8760;52.248;20.952;2023-10-19T00:05:50;3.50;26.50
17284;DHT22;8760;52.248;20.952;2023-10-19T00:08:16;3.50;99.50
17284;DHT22;8760;52.248;20.952;2023-10-19T00:10:48;3.50;99.90
17284;DHT22;8760;52.248;20.952;2023-10-19T00:13:19;3.50;99.90
17284;DHT22;8760;52.248;20.952;2023-10-19T00:15:48;3.60;12.40
17284;DHT22;8760;52.248;20.952;2023-10-19T00:18:17;3.50;1.00
17284;DHT22;8760;52.248;20.952;2023-10-19T00:20:49;3.50;1.00
17284;DHT22;8760;52.248;20.952;2023-10-19T00:23:18;3.50;1.00
17284;DHT22;8760;52.248;20.952;2023-10-19T00:25:56;3.50;1.00
17284;DHT22;8760;52.248;20.952;2023-10-19T00:28:22;3.50;1.00
17284;DHT22;8760;52.248;20.952;2023-10-19T00:30:51;3.50;1.00
17284;DHT22;8760;52.248;20.952;2023-10-19T00:33:19;3.40;1.00
17284;DHT22;8760;52.248;20.952;2023-10-19T00:35:47;3.50;1.00
17284;DHT22;8760;52.248;20.952;2023-10-19T00:38:23;3.40;1.00
17284;DHT22;8760;52.248;20.952;2023-10-19T00:41:07;3.40;1.00
17284;DHT22;8760;52.248;20.952;2023-10-19T00:43:38;3.40;1.00
17284;DHT22;8760;52.248;20.952;2023-10-19T00:46:09;3.40;1.00
17284;DHT22;8760;52.248;20.952;2023-10-19T00:48:44;3.30;1.00
17284;DHT22;8760;52.248;20.952;2023-10-19T00:51:12;3.30;1.00
17284;DHT22;8760;52.248;20.952;2023-10-19T00:53:53;3.30;11.90
17284;DHT22;8760;52.248;20.952;2023-10-19T00:56:23;3.30;99.90
17284;DHT22;8760;52.248;20.952;2023-10-19T00:58:52;3.30;47.10
17284;DHT22;8760;52.248;20.952;2023-10-19T01:01:28;3.30;1.00
17284;DHT22;8760;52.248;20.952;2023-10-19T01:03:55;3.30;3.90
17284;DHT22;8760;52.248;20.952;2023-10-19T01:06:24;3.30;22.70
17284;DHT22;8760;52.248;20.952;2023-10-19T01:08:57;3.30;11.90
17284;DHT22;8760;52.248;20.952;2023-10-19T01:11:25;3.40;1.00
17284;DHT22;8760;52.248;20.952;2023-10-19T01:13:54;3.40;1.00
17284;DHT22;8760;52.248;20.952;2023-10-19T01:16:21;3.40;1.00
17284;DHT22;8760;52.248;20.952;2023-10-19T01:18:49;3.30;1.00
17284;DHT22;8760;52.248;20.952;2023-10-19T01:21:22;3.40;1.00
17284;DHT22;8760;52.248;20.952;2023-10-19T01:23:54;3.40;4.90
17284;DHT22;8760;52.248;20.952;2023-10-19T01:26:21;3.30;1.00
17284;DHT22;8760;52.248;20.952;2023-10-19T01:28:52;3.40;1.00
17284;DHT22;8760;52.248;20.952;2023-10-19T01:31:26;3.40;2.00
17284;DHT22;8760;52.248;20.952;2023-10-19T01:34:04;3.40;1.00
17284;DHT22;8760;52.248;20.952;2023-10-19T01:36:31;3.40;1.00
17284;DHT22;8760;52.248;20.952;2023-10-19T01:39:04;3.30;1.00
17284;DHT22;8760;52.248;20.952;2023-10-19T01:41:36;3.30;35.20
17284;DHT22;8760;52.248;20.952;2023-10-19T01:44:05;3.30;35.50
17284;DHT22;8760;52.248;20.952;2023-10-19T01:46:33;3.30;69.00
17284;DHT22;8760;52.248;20.952;2023-10-19T01:49:01;3.40;61.20
17284;DHT22;8760;52.248;20.952;2023-10-19T01:51:29;3.40;3.80
17284;DHT22;8760;52.248;20.952;2023-10-19T01:53:58;3.40;1.00
17284;DHT22;8760;52.248;20.952;2023-10-19T01:56:25;3.30;1.00
17284;DHT22;8760;52.248;20.952;2023-10-19T01:58:53;3.30;1.00
17284;DHT22;8760;52.248;20.952;2023-10-19T02:01:20;3.30;1.00
17284;DHT22;8760;52.248;20.952;2023-10-19T02:03:55;3.20;1.00
17284;DHT22;8760;52.248;20.952;2023-10-19T02:06:23;3.20;1.00
17284;DHT22;8760;52.248;20.952;2023-10-19T02:08:58;3.20;1.00
17284;DHT22;8760;52.248;20.952;2023-10-19T02:11:28;3.10;1.00
17284;DHT22;8760;52.248;20.952;2023-10-19T02:13:57;3.10;1.00
17284;DHT22;8760;52.248;20.952;2023-10-19T02:16:26;3.20;1.00
17284;DHT22;8760;52.248;20.952;2023-10-19T02:18:55;3.10;1.00
17284;DHT22;8760;52.248;20.952;2023-10-19T02:21:22;3.10;1.00
17284;DHT22;8760;52.248;20.952;2023-10-19T02:23:53;3.10;4.00
17284;DHT22;8760;52.248;20.952;2023-10-19T02:26:20;3.00;1.00
17284;DHT22;8760;52.248;20.952;2023-10-19T02:28:49;3.00;1.00
17284;DHT22;8760;52.248;20.952;2023-10-19T02:31:19;3.00;9.60
17284;DHT22;8760;52.248;20.952;2023-10-19T02:33:47;3.00;42.40
17284;DHT22;8760;52.248;20.952;2023-10-19T02:36:17;3.00;37.30
17284;DHT22;8760;52.248;20.952;2023-10-19T02:38:45;3.00;58.40
17284;DHT22;8760;52.248;20.952;2023-10-19T02:41:17;3.00;62.80
17284;DHT22;8760;52.248;20.952;2023-10-19T02:43:43;2.90;19.50
17284;DHT22;8760;52.248;20.952;2023-10-19T02:46:17;2.90;9.90
17284;DHT22;8760;52.248;20.952;2023-10-19T02:48:43;2.90;17.10
17284;DHT22;8760;52.248;20.952;2023-10-19T02:51:11;2.90;27.00
17284;DHT22;8760;52.248;20.952;2023-10-19T02:53:38;2.90;89.10
17284;DHT22;8760;52.248;20.952;2023-10-19T02:56:12;3.00;56.40
17284;DHT22;8760;52.248;20.952;2023-10-19T02:58:41;2.90;10.50
17284;DHT22;8760;52.248;20.952;2023-10-19T03:01:13;2.90;1.00
17284;DHT22;8760;52.248;20.952;2023-10-19T03:03:44;2.90;19.40
17284;DHT22;8760;52.248;20.952;2023-10-19T03:06:12;2.90;58.10
17284;DHT22;8760;52.248;20.952;2023-10-19T03:08:39;2.90;99.90
17284;DHT22;8760;52.248;20.952;2023-10-19T03:11:04;2.90;99.90
17284;DHT22;8760;52.248;20.952;2023-10-19T03:13:33;2.90;99.90
17284;DHT22;8760;52.248;20.952;2023-10-19T03:15:59;2.90;99.90
17284;DHT22;8760;52.248;20.952;2023-10-19T03:18:32;2.90;99.90
17284;DHT22;8760;52.248;20.952;2023-10-19T03:21:00;2.90;99.90
17284;DHT22;8760;52.248;20.952;2023-10-19T03:23:27;2.90;99.90
17284;DHT22;8760;52.248;20.952;2023-10-19T03:25:55;2.90;99.90
17284;DHT22;8760;52.248;20.952;2023-10-19T03:28:46;2.90;99.90
17284;DHT22;8760;52.248;20.952;2023-10-19T03:31:12;2.90;99.90
17284;DHT22;8760;52.248;20.952;2023-10-19T03:33:43;2.80;99.90
17284;DHT22;8760;52.248;20.952;2023-10-19T03:36:14;2.80;99.90
17284;DHT22;8760;52.248;20.952;2023-10-19T03:38:42;2.80;99.90
17284;DHT22;8760;52.248;20.952;2023-10-19T03:41:10;2.80;99.90
17284;DHT22;8760;52.248;20.952;2023-10-19T03:43:37;2.80;99.90
17284;DHT22;8760;52.248;20.952;2023-10-19T03:46:06;2.80;99.90
17284;DHT22;8760;52.248;20.952;2023-10-19T03:48:44;2.80;99.90
17284;DHT22;8760;52.248;20.952;2023-10-19T03:51:13;2.70;99.90
17284;DHT22;8760;52.248;20.952;2023-10-19T03:53:40;2.70;99.90
17284;DHT22;8760;52.248;20.952;2023-10-19T03:56:12;2.80;99.90
17284;DHT22;8760;52.248;20.952;2023-10-19T03:58:39;2.80;99.90
17284;DHT22;8760;52.248;20.952;2023-10-19T04:01:08;2.80;99.90
17284;DHT22;8760;52.248;20.952;2023-10-19T04:03:36;2.80;99.90
17284;DHT22;8760;52.248;20.952;2023-10-19T04:06:04;2.80;99.90
17284;DHT22;8760;52.248;20.952;2023-10-19T04:08:32;2.80;99.90
17284;DHT22;8760;52.248;20.952;2023-10-19T04:11:03;2.80;99.90
17284;DHT22;8760;52.248;20.952;2023-10-19T04:13:37;2.80;99.90
17284;DHT22;8760;52.248;20.952;2023-10-19T04:16:04;2.80;99.90
17284;DHT22;8760;52.248;20.952;2023-10-19T04:18:34;2.80;99.90
17284;DHT22;8760;52.248;20.952;2023-10-19T04:21:03;2.80;99.90
17284;DHT22;8760;52.248;20.952;2023-10-19T04:23:32;2.80;99.90
17284;DHT22;8760;52.248;20.952;2023-10-19T04:26:02;2.80;99.90
17284;DHT22;8760;52.248;20.952;2023-10-19T04:28:36;2.70;99.90
17284;DHT22;8760;52.248;20.952;2023-10-19T04:31:10;2.70;99.90
17284;DHT22;8760;52.248;20.952;2023-10-19T04:33:39;2.70;99.90
17284;DHT22;8760;52.248;20.952;2023-10-19T04:36:08;2.70;99.90
17284;DHT22;8760;52.248;20.952;2023-10-19T04:38:38;2.70;99.90
17284;DHT22;8760;52.248;20.952;2023-10-19T04:41:06;2.80;99.90
17284;DHT22;8760;52.248;20.952;2023-10-19T04:43:36;2.70;99.90
17284;DHT22;8760;52.248;20.952;2023-10-19T04:46:07;2.80;99.90
17284;DHT22;8760;52.248;20.952;2023-10-19T04:48:37;2.80;99.90
17284;DHT22;8760;52.248;20.952;2023-10-19T04:51:05;2.80;99.90
17284;DHT22;8760;52.248;20.952;2023-10-19T04:53:32;2.80;99.90
17284;DHT22;8760;52.248;20.952;2023-10-19T04:56:00;2.80;97.20
17284;DHT22;8760;52.248;20.952;2023-10-19T04:58:29;2.80;66.50
17284;DHT22;8760;52.248;20.952;2023-10-19T05:00:56;2.70;48.20
17284;DHT22;8760;52.248;20.952;2023-10-19T05:03:24;2.70;99.90
17284;DHT22;8760;52.248;20.952;2023-10-19T05:05:51;2.70;99.90
17284;DHT22;8760;52.248;20.952;2023-10-19T05:08:18;2.70;99.90
17284;DHT22;8760;52.248;20.952;2023-10-19T05:10:46;2.70;99.90
17284;DHT22;8760;52.248;20.952;2023-10-19T05:13:15;2.80;99.90
17284;DHT22;8760;52.248;20.952;2023-10-19T05:15:42;2.80;99.90
17284;DHT22;8760;52.248;20.952;2023-10-19T05:18:09;2.80;99.90
17284;DHT22;8760;52.248;20.952;2023-10-19T05:20:37;2.80;99.90
17284;DHT22;8760;52.248;20.952;2023-10-19T05:23:06;2.80;99.90
17284;DHT22;8760;52.248;20.952;2023-10-19T05:25:33;2.80;99.90
17284;DHT22;8760;52.248;20.952;2023-10-19T05:28:02;2.80;99.90
17284;DHT22;8760;52.248;20.952;2023-10-19T05:30:30;2.80;99.90
17284;DHT22;8760;52.248;20.952;2023-10-19T05:32:57;2.90;99.90
17284;DHT22;8760;52.248;20.952;2023-10-19T05:35:25;3.00;99.90
17284;DHT22;8760;52.248;20.952;2023-10-19T05:37:52;3.00;99.90
17284;DHT22;8760;52.248;20.952;2023-10-19T05:40:21;3.00;99.90
17284;DHT22;8760;52.248;20.952;2023-10-19T05:42:49;3.10;99.90
17284;DHT22;8760;52.248;20.952;2023-10-19T05:45:16;3.10;99.90
17284;DHT22;8760;52.248;20.952;2023-10-19T05:47:44;3.20;99.90
17284;DHT22;8760;52.248;20.952;2023-10-19T05:50:11;3.20;99.90
17284;DHT22;8760;52.248;20.952;2023-10-19T05:52:40;3.30;99.90
17284;DHT22;8760;52.248;20.952;2023-10-19T05:55:09;3.30;99.90
17284;DHT22;8760;52.248;20.952;2023-10-19T05:57:37;3.30;99.90
17284;DHT22;8760;52.248;20.952;2023-10-19T06:00:09;3.40;99.90
17284;DHT22;8760;52.248;20.952;2023-10-19T06:02:40;3.50;99.90
17284;DHT22;8760;52.248;20.952;2023-10-19T06:05:11;3.50;99.90
17284;DHT22;8760;52.248;20.952;2023-10-19T06:07:41;3.60;99.90
17284;DHT22;8760;52.248;20.952;2023-10-19T06:10:11;3.60;99.90
17284;DHT22;8760;52.248;20.952;2023-10-19T06:12:41;3.70;99.90
17284;DHT22;8760;52.248;20.952;2023-10-19T06:15:09;3.90;99.90
17284;DHT22;8760;52.248;20.952;2023-10-19T06:17:36;4.00;99.90
17284;DHT22;8760;52.248;20.952;2023-10-19T06:20:05;4.00;99.90
17284;DHT22;8760;52.248;20.952;2023-10-19T06:22:34;4.20;99.90
17284;DHT22;8760;52.248;20.952;2023-10-19T06:25:02;4.30;47.20
17284;DHT22;8760;52.248;20.952;2023-10-19T06:27:30;4.50;1.00
17284;DHT22;8760;52.248;20.952;2023-10-19T06:29:57;4.60;1.00
17284;DHT22;8760;52.248;20.952;2023-10-19T06:32:24;4.70;1.00
17284;DHT22;8760;52.248;20.952;2023-10-19T06:34:52;4.90;1.00
17284;DHT22;8760;52.248;20.952;2023-10-19T06:37:21;5.00;1.00
17284;DHT22;8760;52.248;20.952;2023-10-19T06:39:49;5.10;1.00
17284;DHT22;8760;52.248;20.952;2023-10-19T06:42:17;5.30;1.00
17284;DHT22;8760;52.248;20.952;2023-10-19T06:44:44;5.50;1.00
17284;DHT22;8760;52.248;20.952;2023-10-19T06:47:11;5.60;59.30
17284;DHT22;8760;52.248;20.952;2023-10-19T06:49:39;5.80;1.00
17284;DHT22;8760;52.248;20.952;2023-10-19T06:52:06;6.00;99.90
17284;DHT22;8760;52.248;20.952;2023-10-19T06:54:37;6.00;99.90
17284;DHT22;8760;52.248;20.952;2023-10-19T06:57:06;6.10;46.60
17284;DHT22;8760;52.248;20.952;2023-10-19T06:59:34;6.30;1.00
17284;DHT22;8760;52.248;20.952;2023-10-19T07:02:01;6.40;1.00
17284;DHT22;8760;52.248;20.952;2023-10-19T07:04:28;6.60;1.00
17284;DHT22;8760;52.248;20.952;2023-10-19T07:06:56;6.80;1.00
17284;DHT22;8760;52.248;20.952;2023-10-19T07:09:22;7.00;1.00
17284;DHT22;8760;52.248;20.952;2023-10-19T07:11:50;7.10;99.90
17284;DHT22;8760;52.248;20.952;2023-10-19T07:14:21;7.20;99.90
17284;DHT22;8760;52.248;20.952;2023-10-19T07:16:49;7.30;99.90
17284;DHT22;8760;52.248;20.952;2023-10-19T07:19:17;7.40;99.90
17284;DHT22;8760;52.248;20.952;2023-10-19T07:21:44;7.50;99.90
17284;DHT22;8760;52.248;20.952;2023-10-19T07:24:16;7.50;1.00
17284;DHT22;8760;52.248;20.952;2023-10-19T07:26:45;7.50;79.40
17284;DHT22;8760;52.248;20.952;2023-10-19T07:29:29;7.60;67.20
17284;DHT22;8760;52.248;20.952;2023-10-19T07:31:57;7.80;29.00
17284;DHT22;8760;52.248;20.952;2023-10-19T07:34:24;7.90;1.00
17284;DHT22;8760;52.248;20.952;2023-10-19T07:36:54;8.00;1.00
17284;DHT22;8760;52.248;20.952;2023-10-19T07:39:20;8.10;1.00
17284;DHT22;8760;52.248;20.952;2023-10-19T07:41:48;8.20;1.00
17284;DHT22;8760;52.248;20.952;2023-10-19T07:44:15;8.40;1.00
17284;DHT22;8760;52.248;20.952;2023-10-19T07:46:43;8.40;1.00
17284;DHT22;8760;52.248;20.952;2023-10-19T07:49:10;8.50;1.00
17284;DHT22;8760;52.248;20.952;2023-10-19T07:51:41;8.60;1.00
17284;DHT22;8760;52.248;20.952;2023-10-19T07:54:11;8.80;1.00
17284;DHT22;8760;52.248;20.952;2023-10-19T07:56:38;9.00;1.00
17284;DHT22;8760;52.248;20.952;2023-10-19T07:59:05;9.20;1.00
17284;DHT22;8760;52.248;20.952;2023-10-19T08:01:32;9.40;1.00
17284;DHT22;8760;52.248;20.952;2023-10-19T08:04:00;9.40;99.90
17284;DHT22;8760;52.248;20.952;2023-10-19T08:06:30;9.60;99.90
17284;DHT22;8760;52.248;20.952;2023-10-19T08:09:00;9.60;99.90
17284;DHT22;8760;52.248;20.952;2023-10-19T08:11:27;10.00;99.90
17284;DHT22;8760;52.248;20.952;2023-10-19T08:13:53;9.60;99.90
17284;DHT22;8760;52.248;20.952;2023-10-19T08:16:21;9.70;99.90
17284;DHT22;8760;52.248;20.952;2023-10-19T08:18:48;9.70;99.90
17284;DHT22;8760;52.248;20.952;2023-10-19T08:21:19;9.70;99.90
17284;DHT22;8760;52.248;20.952;2023-10-19T08:23:47;9.80;99.90
17284;DHT22;8760;52.248;20.952;2023-10-19T08:26:14;10.00;99.90
17284;DHT22;8760;52.248;20.952;2023-10-19T08:28:41;10.30;99.90
17284;DHT22;8760;52.248;20.952;2023-10-19T08:31:09;10.40;99.90
17284;DHT22;8760;52.248;20.952;2023-10-19T08:33:36;10.60;99.90
17284;DHT22;8760;52.248;20.952;2023-10-19T08:36:15;10.90;99.90
17284;DHT22;8760;52.248;20.952;2023-10-19T08:38:45;10.80;99.90
17284;DHT22;8760;52.248;20.952;2023-10-19T08:41:12;10.70;99.90
17284;DHT22;8760;52.248;20.952;2023-10-19T08:43:39;10.50;99.90
17284;DHT22;8760;52.248;20.952;2023-10-19T08:46:06;10.40;99.90
17284;DHT22;8760;52.248;20.952;2023-10-19T08:48:34;10.60;99.90
17284;DHT22;8760;52.248;20.952;2023-10-19T08:51:03;11.00;99.90
17284;DHT22;8760;52.248;20.952;2023-10-19T08:53:32;11.60;99.90
17284;DHT22;8760;52.248;20.952;2023-10-19T08:56:06;11.90;99.90
17284;DHT22;8760;52.248;20.952;2023-10-19T08:58:34;12.20;99.90
17284;DHT22;8760;52.248;20.952;2023-10-19T09:01:01;12.30;99.90
17284;DHT22;8760;52.248;20.952;2023-10-19T09:03:32;12.30;99.90
17284;DHT22;8760;52.248;20.952;2023-10-19T09:06:01;12.40;99.90
17284;DHT22;8760;52.248;20.952;2023-10-19T09:08:28;12.20;99.90
17284;DHT22;8760;52.248;20.952;2023-10-19T09:11:07;12.10;99.90
17284;DHT22;8760;52.248;20.952;2023-10-19T09:13:44;12.30;99.90
17284;DHT22;8760;52.248;20.952;2023-10-19T09:16:13;12.60;99.90
17284;DHT22;8760;52.248;20.952;2023-10-19T09:18:42;12.80;99.90
17284;DHT22;8760;52.248;20.952;2023-10-19T09:21:09;13.00;99.90
17284;DHT22;8760;52.248;20.952;2023-10-19T09:23:38;13.10;99.90
17284;DHT22;8760;52.248;20.952;2023-10-19T09:26:08;13.20;96.80
17284;DHT22;8760;52.248;20.952;2023-10-19T09:28:37;13.30;90.80
17284;DHT22;8760;52.248;20.952;2023-10-19T09:31:05;13.40;86.50
17284;DHT22;8760;52.248;20.952;2023-10-19T09:33:35;13.50;72.40
17284;DHT22;8760;52.248;20.952;2023-10-19T09:36:03;13.20;61.80
17284;DHT22;8760;52.248;20.952;2023-10-19T09:38:38;12.90;55.10
17284;DHT22;8760;52.248;20.952;2023-10-19T09:41:12;12.70;55.30
17284;DHT22;8760;52.248;20.952;2023-10-19T09:43:42;12.80;63.00
17284;DHT22;8760;52.248;20.952;2023-10-19T09:46:11;12.90;66.80
17284;DHT22;8760;52.248;20.952;2023-10-19T09:48:40;12.80;58.10
17284;DHT22;8760;52.248;20.952;2023-10-19T09:51:09;12.40;58.40
17284;DHT22;8760;52.248;20.952;2023-10-19T09:53:37;12.50;65.80
17284;DHT22;8760;52.248;20.952;2023-10-19T09:56:08;12.60;66.60
17284;DHT22;8760;52.248;20.952;2023-10-19T09:58:41;12.60;76.90
17284;DHT22;8760;52.248;20.952;2023-10-19T10:01:11;12.70;74.40
17284;DHT22;8760;52.248;20.952;2023-10-19T10:03:45;12.80;61.20
17284;DHT22;8760;52.248;20.952;2023-10-19T10:06:13;12.70;47.00
17284;DHT22;8760;52.248;20.952;2023-10-19T10:08:42;12.70;44.20
17284;DHT22;8760;52.248;20.952;2023-10-19T10:11:28;12.60;43.20
17284;DHT22;8760;52.248;20.952;2023-10-19T10:13:56;12.70;37.30
17284;DHT22;8760;52.248;20.952;2023-10-19T10:16:24;12.50;56.60
17284;DHT22;8760;52.248;20.952;2023-10-19T10:18:55;12.40;40.50
17284;DHT22;8760;52.248;20.952;2023-10-19T10:21:25;12.30;36.50
17284;DHT22;8760;52.248;20.952;2023-10-19T10:23:53;12.20;36.00
17284;DHT22;8760;52.248;20.952;2023-10-19T10:26:22;12.10;39.50
17284;DHT22;8760;52.248;20.952;2023-10-19T10:29:10;12.00;45.20
17284;DHT22;8760;52.248;20.952;2023-10-19T10:31:42;11.80;44.00
17284;DHT22;8760;52.248;20.952;2023-10-19T10:34:10;11.80;44.20
17284;DHT22;8760;52.248;20.952;2023-10-19T10:36:57;11.80;52.70
17284;DHT22;8760;52.248;20.952;2023-10-19T10:39:25;11.90;60.80
17284;DHT22;8760;52.248;20.952;2023-10-19T10:41:55;11.90;67.30
17284;DHT22;8760;52.248;20.952;2023-10-19T10:44:37;11.90;71.80
17284;DHT22;8760;52.248;20.952;2023-10-19T10:47:09;11.90;68.70
17284;DHT22;8760;52.248;20.952;2023-10-19T10:49:49;11.90;60.00
17284;DHT22;8760;52.248;20.952;2023-10-19T10:52:30;11.70;51.60
17284;DHT22;8760;52.248;20.952;2023-10-19T10:54:57;11.70;51.00
17284;DHT22;8760;52.248;20.952;2023-10-19T10:57:31;11.70;52.60
17284;DHT22;8760;52.248;20.952;2023-10-19T11:00:04;11.60;53.10
17284;DHT22;8760;52.248;20.952;2023-10-19T11:02:33;11.60;52.30
17284;DHT22;8760;52.248;20.952;2023-10-19T11:05:00;11.30;56.00
17284;DHT22;8760;52.248;20.952;2023-10-19T11:07:28;11.30;59.20
17284;DHT22;8760;52.248;20.952;2023-10-19T11:09:57;11.40;67.90
17284;DHT22;8760;52.248;20.952;2023-10-19T11:12:24;11.30;61.60
17284;DHT22;8760;52.248;20.952;2023-10-19T11:14:52;11.10;69.00
17284;DHT22;8760;52.248;20.952;2023-10-19T11:17:21;11.20;78.60
17284;DHT22;8760;52.248;20.952;2023-10-19T11:19:55;11.30;79.30
17284;DHT22;8760;52.248;20.952;2023-10-19T11:22:23;11.40;93.90
17284;DHT22;8760;52.248;20.952;2023-10-19T11:24:52;11.50;96.20
17284;DHT22;8760;52.248;20.952;2023-10-19T11:27:23;11.60;86.00
17284;DHT22;8760;52.248;20.952;2023-10-19T11:29:55;11.60;90.50
17284;DHT22;8760;52.248;20.952;2023-10-19T11:32:24;11.60;80.30
17284;DHT22;8760;52.248;20.952;2023-10-19T11:34:52;11.40;72.30
17284;DHT22;8760;52.248;20.952;2023-10-19T11:37:19;11.30;75.60
17284;DHT22;8760;52.248;20.952;2023-10-19T11:39:46;11.30;83.50
17284;DHT22;8760;52.248;20.952;2023-10-19T11:42:15;11.30;91.90
17284;DHT22;8760;52.248;20.952;2023-10-19T11:44:43;11.30;95.70
17284;DHT22;8760;52.248;20.952;2023-10-19T11:47:10;11.40;95.70
17284;DHT22;8760;52.248;20.952;2023-10-19T11:49:40;11.40;89.40
17284;DHT22;8760;52.248;20.952;2023-10-19T11:52:07;11.30;78.40
17284;DHT22;8760;52.248;20.952;2023-10-19T11:54:34;11.30;75.40
17284;DHT22;8760;52.248;20.952;2023-10-19T11:57:02;11.30;74.00
17284;DHT22;8760;52.248;20.952;2023-10-19T11:59:29;11.20;72.60
17284;DHT22;8760;52.248;20.952;2023-10-19T12:01:56;11.30;70.90
17284;DHT22;8760;52.248;20.952;2023-10-19T12:04:24;11.30;73.70
17284;DHT22;8760;52.248;20.952;2023-10-19T12:06:52;11.20;87.80
17284;DHT22;8760;52.248;20.952;2023-10-19T12:09:20;11.30;91.30
17284;DHT22;8760;52.248;20.952;2023-10-19T12:11:50;11.30;94.20
17284;DHT22;8760;52.248;20.952;2023-10-19T12:14:18;11.30;94.00
17284;DHT22;8760;52.248;20.952;2023-10-19T12:16:46;11.40;90.90
17284;DHT22;8760;52.248;20.952;2023-10-19T12:19:13;11.40;85.50
17284;DHT22;8760;52.248;20.952;2023-10-19T12:21:42;11.50;84.10
17284;DHT22;8760;52.248;20.952;2023-10-19T12:24:11;11.50;75.40
17284;DHT22;8760;52.248;20.952;2023-10-19T12:26:38;11.40;74.60
17284;DHT22;8760;52.248;20.952;2023-10-19T12:29:06;11.40;79.00
17284;DHT22;8760;52.248;20.952;2023-10-19T12:31:36;11.40;79.90
17284;DHT22;8760;52.248;20.952;2023-10-19T12:34:06;11.40;90.30
17284;DHT22;8760;52.248;20.952;2023-10-19T12:36:34;11.40;89.00
17284;DHT22;8760;52.248;20.952;2023-10-19T12:39:01;11.40;85.90
17284;DHT22;8760;52.248;20.952;2023-10-19T12:41:32;11.40;87.20
17284;DHT22;8760;52.248;20.952;2023-10-19T12:43:59;11.30;85.70
17284;DHT22;8760;52.248;20.952;2023-10-19T12:46:28;11.30;94.30
17284;DHT22;8760;52.248;20.952;2023-10-19T12:48:55;11.30;92.70
17284;DHT22;8760;52.248;20.952;2023-10-19T12:51:23;11.30;86.90
17284;DHT22;8760;52.248;20.952;2023-10-19T12:53:50;11.20;90.60
17284;DHT22;8760;52.248;20.952;2023-10-19T12:56:18;11.10;96.20
17284;DHT22;8760;52.248;20.952;2023-10-19T12:58:46;11.10;93.10
17284;DHT22;8760;52.248;20.952;2023-10-19T13:01:13;11.10;96.20
17284;DHT22;8760;52.248;20.952;2023-10-19T13:03:44;11.10;96.10
17284;DHT22;8760;52.248;20.952;2023-10-19T13:06:12;11.10;97.00
17284;DHT22;8760;52.248;20.952;2023-10-19T13:08:39;11.00;94.90
17284;DHT22;8760;52.248;20.952;2023-10-19T13:11:07;11.00;97.90
17284;DHT22;8760;52.248;20.952;2023-10-19T13:13:35;10.90;98.20
17284;DHT22;8760;52.248;20.952;2023-10-19T13:16:04;10.90;99.90
17284;DHT22;8760;52.248;20.952;2023-10-19T13:18:32;10.90;99.90
17284;DHT22;8760;52.248;20.952;2023-10-19T13:21:00;10.90;99.90
17284;DHT22;8760;52.248;20.952;2023-10-19T13:23:30;10.90;99.90
17284;DHT22;8760;52.248;20.952;2023-10-19T13:25:59;10.90;99.90
17284;DHT22;8760;52.248;20.952;2023-10-19T13:28:34;10.90;99.90
17284;DHT22;8760;52.248;20.952;2023-10-19T13:31:04;10.90;99.90
17284;DHT22;8760;52.248;20.952;2023-10-19T13:33:35;10.80;99.90
17284;DHT22;8760;52.248;20.952;2023-10-19T13:36:02;10.80;99.90
17284;DHT22;8760;52.248;20.952;2023-10-19T13:38:31;10.80;99.90
17284;DHT22;8760;52.248;20.952;2023-10-19T13:40:58;10.80;99.90
17284;DHT22;8760;52.248;20.952;2023-10-19T13:43:25;10.70;99.90
17284;DHT22;8760;52.248;20.952;2023-10-19T13:45:52;10.70;99.90
17284;DHT22;8760;52.248;20.952;2023-10-19T13:48:21;10.80;99.90
17284;DHT22;8760;52.248;20.952;2023-10-19T13:50:48;10.80;99.90
17284;DHT22;8760;52.248;20.952;2023-10-19T13:53:17;10.80;99.90
17284;DHT22;8760;52.248;20.952;2023-10-19T13:55:44;10.80;99.90
17284;DHT22;8760;52.248;20.952;2023-10-19T13:58:12;10.80;99.90
17284;DHT22;8760;52.248;20.952;2023-10-19T14:00:42;10.70;99.90
17284;DHT22;8760;52.248;20.952;2023-10-19T14:03:09;10.70;99.90
17284;DHT22;8760;52.248;20.952;2023-10-19T14:05:39;10.70;99.90
17284;DHT22;8760;52.248;20.952;2023-10-19T14:08:09;10.80;99.90
17284;DHT22;8760;52.248;20.952;2023-10-19T14:10:36;10.80;99.90
17284;DHT22;8760;52.248;20.952;2023-10-19T14:13:05;10.70;99.90
17284;DHT22;8760;52.248;20.952;2023-10-19T14:15:32;10.70;99.90
17284;DHT22;8760;52.248;20.952;2023-10-19T14:18:01;10.80;99.90
17284;DHT22;8760;52.248;20.952;2023-10-19T14:20:29;10.80;99.90
17284;DHT22;8760;52.248;20.952;2023-10-19T14:23:00;10.70;99.90
17284;DHT22;8760;52.248;20.952;2023-10-19T14:25:28;10.70;99.90
17284;DHT22;8760;52.248;20.952;2023-10-19T14:27:55;10.80;99.90
17284;DHT22;8760;52.248;20.952;2023-10-19T14:30:27;10.80;99.90
17284;DHT22;8760;52.248;20.952;2023-10-19T14:32:55;10.80;99.90
17284;DHT22;8760;52.248;20.952;2023-10-19T14:35:23;10.80;99.90
17284;DHT22;8760;52.248;20.952;2023-10-19T14:37:52;10.80;99.90
17284;DHT22;8760;52.248;20.952;2023-10-19T14:40:23;10.80;99.90
17284;DHT22;8760;52.248;20.952;2023-10-19T14:42:51;10.80;99.90
17284;DHT22;8760;52.248;20.952;2023-10-19T14:45:20;10.70;99.90
17284;DHT22;8760;52.248;20.952;2023-10-19T14:47:51;10.70;99.90
17284;DHT22;8760;52.248;20.952;2023-10-19T14:50:20;10.70;99.90
17284;DHT22;8760;52.248;20.952;2023-10-19T14:52:52;10.70;99.90
17284;DHT22;8760;52.248;20.952;2023-10-19T14:55:20;10.60;99.90
17284;DHT22;8760;52.248;20.952;2023-10-19T14:57:50;10.60;99.90
17284;DHT22;8760;52.248;20.952;2023-10-19T15:00:19;10.60;99.90
17284;DHT22;8760;52.248;20.952;2023-10-19T15:02:52;10.60;99.90
17284;DHT22;8760;52.248;20.952;2023-10-19T15:05:21;10.60;99.90
17284;DHT22;8760;52.248;20.952;2023-10-19T15:07:51;10.50;99.90
17284;DHT22;8760;52.248;20.952;2023-10-19T15:10:20;10.60;99.90
17284;DHT22;8760;52.248;20.952;2023-10-19T15:12:49;10.50;99.90
17284;DHT22;8760;52.248;20.952;2023-10-19T15:15:16;10.50;99.90
17284;DHT22;8760;52.248;20.952;2023-10-19T15:17:43;10.50;99.90
17284;DHT22;8760;52.248;20.952;2023-10-19T15:20:13;10.40;99.90
17284;DHT22;8760;52.248;20.952;2023-10-19T15:22:40;10.40;99.90
17284;DHT22;8760;52.248;20.952;2023-10-19T15:25:08;10.40;99.90
17284;DHT22;8760;52.248;20.952;2023-10-19T15:27:36;10.40;99.90
17284;DHT22;8760;52.248;20.952;2023-10-19T15:30:07;10.40;99.90
17284;DHT22;8760;52.248;20.952;2023-10-19T15:32:34;10.40;99.90
17284;DHT22;8760;52.248;20.952;2023-10-19T15:35:01;10.30;99.90
17284;DHT22;8760;52.248;20.952;2023-10-19T15:37:29;10.30;99.90
17284;DHT22;8760;52.248;20.952;2023-10-19T15:39:56;10.20;99.90
17284;DHT22;8760;52.248;20.952;2023-10-19T15:42:23;10.20;99.90
17284;DHT22;8760;52.248;20.952;2023-10-19T15:44:52;10.20;99.90
17284;DHT22;8760;52.248;20.952;2023-10-19T15:47:20;10.20;99.90
17284;DHT22;8760;52.248;20.952;2023-10-19T15:49:50;10.20;99.90
17284;DHT22;8760;52.248;20.952;2023-10-19T15:52:19;10.20;99.90
17284;DHT22;8760;52.248;20.952;2023-10-19T15:54:47;10.20;99.90